Esbjerg, Denmark
Current Conditions -  °F | °C
As of 5:50 AM on Tuesday 21 Oct 2014 (Local Time) from EKEB Reporting Station
Broken Clouds Broken Clouds  
Wind Chill: 52°   Ceiling: 6100
Heat Index: 52°   Visibility: 6mi
Dew Point: 52°   Wind: 8mph
Humidity: 100%   Direction: 160°SSE
Pressure: 29.62"   Gusts: NA
Location:  55.47°N, 8.45°E
Report Text: EKEB 210350Z AUTO 16007KT 9999NDV FEW012/// FEW021///BKN061/// 11/11 Q1003
Loading
Personal Weather Stations






























Interactive Weather Map
Tropical Storm Tracking
New forecast layout! Learn more

10-Day Weather Forecast

Advertisements
Track Severe Weather on mobile